createdAt,value
2023-02-23T00:01:14.908Z,32.51
2023-02-23T00:05:15.149Z,25.83
2023-02-23T00:18:16.031Z,29.52
2023-02-23T00:19:16.124Z,30.78
2023-02-23T00:20:16.173Z,34.73
2023-02-23T00:21:16.684Z,29.35
2023-02-23T00:22:16.310Z,29.80
2023-02-23T00:23:16.380Z,30.96
2023-02-23T00:24:16.457Z,29.33
2023-02-23T00:25:18.211Z,30.41
2023-02-23T00:26:16.582Z,29.62
2023-02-23T00:27:16.648Z,28.34
2023-02-23T00:28:16.724Z,28.73
2023-02-23T00:29:16.793Z,26.78
2023-02-23T00:30:16.865Z,29.21
2023-02-23T00:31:17.259Z,30.83
2023-02-23T00:32:17.039Z,28.66
2023-02-23T00:33:17.059Z,29.36
2023-02-23T00:34:17.130Z,26.50
2023-02-23T00:35:17.211Z,27.77
2023-02-23T00:36:17.293Z,28.89
2023-02-23T00:37:17.353Z,29.80
2023-02-23T00:38:17.415Z,28.91
2023-02-23T00:39:17.483Z,30.92
2023-02-23T00:40:17.564Z,29.52
2023-02-23T00:41:18.112Z,31.12
2023-02-23T00:42:17.706Z,30.47
2023-02-23T00:43:17.762Z,30.16
2023-02-23T00:44:17.831Z,28.76
2023-02-23T00:45:17.907Z,29.67
2023-02-23T00:46:18.057Z,27.99
2023-02-23T00:47:18.053Z,28.75
2023-02-23T00:48:18.120Z,29.79
2023-02-23T00:49:18.193Z,29.05
2023-02-23T00:50:18.257Z,30.34
2023-02-23T00:51:18.641Z,26.78
2023-02-23T00:52:18.394Z,26.44
2023-02-23T00:53:18.456Z,30.51
2023-02-23T00:54:18.547Z,27.47
2023-02-23T01:42:23.916Z,30.37
2023-02-23T01:48:24.406Z,30.97
2023-02-23T01:54:23.893Z,29.25
2023-02-23T01:59:23.125Z,25.90
2023-02-23T02:00:23.196Z,28.64
2023-02-23T02:01:23.330Z,29.89
2023-02-23T02:02:23.344Z,30.01
2023-02-23T02:03:23.410Z,28.00
2023-02-23T02:04:23.595Z,31.49
2023-02-23T02:05:23.586Z,30.62
2023-02-23T02:06:23.633Z,30.13
2023-02-23T02:07:23.716Z,31.35
2023-02-23T02:08:23.782Z,29.12
2023-02-23T02:09:23.856Z,29.31
2023-02-23T02:10:24.913Z,30.43
2023-02-23T02:11:24.009Z,28.38
2023-02-23T02:12:24.192Z,31.40
2023-02-23T02:13:24.156Z,29.08
2023-02-23T02:14:24.305Z,26.53
2023-02-23T02:15:24.507Z,31.43
2023-02-23T02:16:24.415Z,31.96
2023-02-23T02:17:24.582Z,28.49
2023-02-23T02:18:24.508Z,28.67
2023-02-23T02:19:24.581Z,30.94
2023-02-23T02:20:24.685Z,31.97
2023-02-23T02:21:24.730Z,31.54
2023-02-23T02:22:24.799Z,30.13
2023-02-23T02:23:24.865Z,26.12
2023-02-23T02:24:24.918Z,28.23
2023-02-23T02:25:26.753Z,29.06
2023-02-23T02:26:25.051Z,31.44
2023-02-23T02:27:25.128Z,27.72
2023-02-23T02:28:25.190Z,29.85
2023-02-23T02:29:25.245Z,30.31
2023-02-23T02:30:25.351Z,30.39
2023-02-23T02:31:26.453Z,30.15
2023-02-23T03:25:29.126Z,33.01
2023-02-23T03:26:29.191Z,31.05
2023-02-23T03:27:29.264Z,33.44
2023-02-23T03:28:29.332Z,29.13
2023-02-23T03:29:29.557Z,33.84
2023-02-23T03:30:29.495Z,26.40
2023-02-23T03:31:29.567Z,31.45
2023-02-23T03:32:29.652Z,32.01
2023-02-23T03:33:29.690Z,30.65
2023-02-23T03:34:29.872Z,31.08
2023-02-23T03:35:29.805Z,29.23
2023-02-23T03:36:30.032Z,25.90
2023-02-23T03:37:29.945Z,32.31
2023-02-23T03:38:30.011Z,35.21
2023-02-23T03:39:30.303Z,34.83
2023-02-23T03:40:30.234Z,33.21
2023-02-23T03:41:30.312Z,36.22
2023-02-23T03:42:30.384Z,29.56
2023-02-23T03:43:30.387Z,34.94
2023-02-23T03:44:30.470Z,31.81
2023-02-23T03:45:30.576Z,30.66
2023-02-23T03:46:30.605Z,35.53
2023-02-23T03:47:30.695Z,28.66
2023-02-23T03:48:30.763Z,30.80
2023-02-23T03:49:30.972Z,33.29
2023-02-23T03:50:30.886Z,27.60
2023-02-23T03:51:30.961Z,28.01
2023-02-23T03:52:31.032Z,27.11
2023-02-23T03:53:31.100Z,27.42
2023-02-23T03:54:31.852Z,29.78
2023-02-23T03:55:31.243Z,28.22
2023-02-23T03:56:31.457Z,33.81
2023-02-23T03:57:31.374Z,33.45
2023-02-23T03:58:31.586Z,33.91
2023-02-23T03:59:31.539Z,29.77
2023-02-23T04:00:31.588Z,36.29
2023-02-23T04:01:31.662Z,29.13
2023-02-23T04:02:31.913Z,30.06
2023-02-23T04:03:31.812Z,29.95
2023-02-23T04:04:32.150Z,34.06
2023-02-23T04:05:32.042Z,27.90
2023-02-23T04:06:32.023Z,33.78
2023-02-23T04:07:32.171Z,34.26
2023-02-23T04:08:32.166Z,31.77
2023-02-23T04:09:32.244Z,35.34
2023-02-23T04:10:32.393Z,37.09
2023-02-23T04:11:32.373Z,28.92
2023-02-23T04:13:32.517Z,29.73
2023-02-23T04:23:33.354Z,34.35
2023-02-23T04:24:33.277Z,33.08
2023-02-23T04:25:33.304Z,26.82
2023-02-23T04:26:33.357Z,28.98
2023-02-23T04:27:33.413Z,31.65
2023-02-23T04:28:33.473Z,29.01
2023-02-23T04:29:33.532Z,34.95
2023-02-23T04:30:33.605Z,32.64
2023-02-23T04:31:33.742Z,27.27
2023-02-23T04:32:33.832Z,31.81
2023-02-23T04:33:33.958Z,31.18
2023-02-23T04:34:33.830Z,28.64
2023-02-23T04:35:34.070Z,33.28
2023-02-23T06:46:43.371Z,56.96
2023-02-23T06:51:43.929Z,59.19
2023-02-23T06:52:43.210Z,58.06
2023-02-23T06:53:43.302Z,56.33
2023-02-23T06:54:43.446Z,57.83
2023-02-23T06:55:43.516Z,60.73
2023-02-23T06:56:43.625Z,59.87
2023-02-23T06:57:43.739Z,58.50
2023-02-23T06:58:43.850Z,57.84
2023-02-23T06:59:43.982Z,57.72
2023-02-23T07:00:44.095Z,56.77
2023-02-23T07:01:44.224Z,58.47
2023-02-23T07:02:44.315Z,57.49
2023-02-23T07:03:44.430Z,56.21
2023-02-23T07:04:45.363Z,57.16
2023-02-23T07:05:46.490Z,56.08
2023-02-23T07:06:44.744Z,59.33
2023-02-23T07:07:44.853Z,60.04
2023-02-23T07:08:44.948Z,61.24
2023-02-23T07:09:45.025Z,57.71
2023-02-23T07:10:45.130Z,57.54
2023-02-23T07:11:45.247Z,61.17
2023-02-23T07:12:45.343Z,59.23
2023-02-23T07:13:46.415Z,58.33
2023-02-23T07:14:45.540Z,59.01
2023-02-23T07:15:45.644Z,54.37
2023-02-23T07:16:45.749Z,57.57
2023-02-23T07:17:45.843Z,56.09
2023-02-23T07:18:45.917Z,60.21
2023-02-23T07:19:45.996Z,56.61
2023-02-23T07:20:46.064Z,55.25
2023-02-23T07:21:46.155Z,57.58
2023-02-23T07:22:46.249Z,56.24
2023-02-23T07:23:46.377Z,66.52
2023-02-23T07:24:46.476Z,72.76
2023-02-23T07:25:46.597Z,76.29
2023-02-23T07:26:46.685Z,79.90
2023-02-23T07:27:46.788Z,80.51
2023-02-23T07:28:46.866Z,86.07
2023-02-23T07:29:46.959Z,91.50
2023-02-23T07:30:47.075Z,95.96
2023-02-23T07:31:47.287Z,98.48
2023-02-23T07:32:47.238Z,102.35
2023-02-23T07:33:47.272Z,107.60
2023-02-23T07:34:47.327Z,111.30
2023-02-23T07:35:47.470Z,114.72
2023-02-23T07:36:47.445Z,121.36
2023-02-23T07:37:47.500Z,124.06
2023-02-23T07:38:47.558Z,131.16
2023-02-23T07:39:47.605Z,135.41
2023-02-23T07:40:47.671Z,137.77
2023-02-23T07:41:47.718Z,142.27
2023-02-23T07:42:47.776Z,149.32
2023-02-23T07:43:47.794Z,152.26
2023-02-23T07:44:47.840Z,156.01
2023-02-23T07:45:47.885Z,159.07
2023-02-23T07:46:47.963Z,163.91
2023-02-23T07:47:47.965Z,169.56
2023-02-23T07:48:48.997Z,169.91
2023-02-23T07:49:48.033Z,170.87
2023-02-23T07:50:48.106Z,174.12
2023-02-23T07:51:48.106Z,180.47
2023-02-23T07:52:48.151Z,190.19
2023-02-23T07:53:48.182Z,193.48
2023-02-23T07:54:48.219Z,196.97
2023-02-23T07:55:48.269Z,204.07
2023-02-23T07:56:48.302Z,206.25
2023-02-23T07:57:48.330Z,210.45
2023-02-23T07:58:48.405Z,212.60
2023-02-23T07:59:48.490Z,216.53
2023-02-23T08:00:48.635Z,223.52
2023-02-23T08:01:48.693Z,224.46
2023-02-23T08:02:48.794Z,228.73
2023-02-23T08:03:48.896Z,230.60
2023-02-23T08:04:49.013Z,235.66
2023-02-23T08:05:49.104Z,240.85
2023-02-23T08:06:49.207Z,246.21
2023-02-23T08:07:49.296Z,249.40
2023-02-23T08:08:49.382Z,249.86
2023-02-23T08:09:49.462Z,249.78
2023-02-23T08:10:50.081Z,249.71
2023-02-23T08:11:49.629Z,250.00
2023-02-23T08:12:49.778Z,249.22
2023-02-23T08:14:49.909Z,250.00
2023-02-23T08:50:52.228Z,127.77
2023-02-23T08:51:52.264Z,137.72
2023-02-23T08:52:52.311Z,135.46
2023-02-23T08:53:52.328Z,141.26
2023-02-23T08:54:52.350Z,141.63
2023-02-23T08:55:52.420Z,152.08
2023-02-23T08:56:52.500Z,151.14
2023-02-23T08:57:52.596Z,152.38
2023-02-23T08:58:52.739Z,155.76
2023-02-23T09:00:52.859Z,163.26
2023-02-23T09:01:53.027Z,167.65
2023-02-23T09:02:53.035Z,170.72
2023-02-23T09:03:53.149Z,175.40
2023-02-23T09:04:53.294Z,176.85
2023-02-23T09:05:53.326Z,179.48
2023-02-23T09:06:53.417Z,181.64
2023-02-23T09:07:53.518Z,185.44
2023-02-23T09:08:53.608Z,189.13
2023-02-23T09:09:53.692Z,192.22
2023-02-23T09:10:53.841Z,197.59
2023-02-23T09:11:53.865Z,199.41
2023-02-23T09:12:53.953Z,198.87
2023-02-23T09:13:54.018Z,201.07
2023-02-23T09:14:54.215Z,202.54
2023-02-23T09:15:54.297Z,207.14
2023-02-23T09:16:54.303Z,210.52
2023-02-23T09:17:54.393Z,212.42
2023-02-23T09:18:54.491Z,215.05
2023-02-23T09:19:54.579Z,216.10
2023-02-23T09:20:54.680Z,212.67
2023-02-23T09:21:54.769Z,216.55
2023-02-23T09:22:54.843Z,212.63
2023-02-23T09:23:54.944Z,207.66
2023-02-23T09:28:56.331Z,206.03
2023-02-23T09:30:55.636Z,201.64
2023-02-23T10:06:58.265Z,183.96
2023-02-23T10:17:59.010Z,176.09
2023-02-23T11:35:03.113Z,234.47
2023-02-23T11:36:03.180Z,233.28
2023-02-23T11:37:03.232Z,231.24
2023-02-23T11:38:05.411Z,234.39
2023-02-23T11:39:03.367Z,234.87
2023-02-23T11:40:03.428Z,237.14
2023-02-23T11:41:03.492Z,247.50
2023-02-23T11:42:03.568Z,241.06
2023-02-23T11:43:03.606Z,243.95
2023-02-23T11:44:05.905Z,245.82
2023-02-23T11:45:03.873Z,247.61
2023-02-23T11:46:03.967Z,250.00
2023-02-23T11:47:04.052Z,250.00
2023-02-23T11:48:04.059Z,249.02
2023-02-23T11:49:04.960Z,250.00
2023-02-23T11:50:04.128Z,249.78
2023-02-23T11:51:04.184Z,250.00
2023-02-23T11:52:04.277Z,249.82
2023-02-23T11:53:04.286Z,248.94
2023-02-23T11:54:05.763Z,248.88
2023-02-23T11:55:04.364Z,248.98
2023-02-23T11:56:04.407Z,250.00
2023-02-23T11:57:04.495Z,250.00
2023-02-23T11:58:04.510Z,249.99
2023-02-23T11:59:04.558Z,250.00
2023-02-23T12:01:04.649Z,249.21
2023-02-23T12:02:05.691Z,250.45
2023-02-23T12:03:04.757Z,249.81
2023-02-23T12:04:04.788Z,248.37
2023-02-23T12:05:04.871Z,245.99
2023-02-23T12:06:04.856Z,250.00
2023-02-23T12:07:04.912Z,248.12
2023-02-23T12:08:05.035Z,248.61
2023-02-23T12:09:05.072Z,248.35
2023-02-23T12:10:05.061Z,247.80
2023-02-23T12:11:05.121Z,248.36
2023-02-23T12:12:05.178Z,248.02
2023-02-23T12:13:05.236Z,246.31
2023-02-23T12:14:05.300Z,245.62
2023-02-23T12:15:05.373Z,245.82
2023-02-23T12:16:05.465Z,245.10
2023-02-23T12:17:05.585Z,243.11
2023-02-23T12:18:05.574Z,244.64
2023-02-23T12:19:05.650Z,245.37
2023-02-23T12:20:05.730Z,246.63
2023-02-23T12:21:05.807Z,249.22
2023-02-23T12:22:05.900Z,249.20
2023-02-23T12:23:05.989Z,249.41
2023-02-23T12:24:06.077Z,244.31
2023-02-23T12:25:06.160Z,246.24
2023-02-23T12:26:06.255Z,246.14
2023-02-23T12:27:06.356Z,244.69
2023-02-23T12:28:18.125Z,241.50
2023-02-23T12:29:06.500Z,241.46
2023-02-23T12:30:08.994Z,239.95
2023-02-23T12:31:06.512Z,237.82
2023-02-23T12:32:06.641Z,235.32
2023-02-23T12:53:07.248Z,220.60
2023-02-23T12:54:07.277Z,220.08
2023-02-23T12:55:07.328Z,219.60
2023-02-23T12:56:07.403Z,220.53
2023-02-23T12:57:07.374Z,219.58
2023-02-23T12:58:07.401Z,217.82
2023-02-23T12:59:07.439Z,218.10
2023-02-23T13:00:07.478Z,215.95
2023-02-23T13:02:07.585Z,216.80
2023-02-23T13:03:07.600Z,216.32
2023-02-23T13:04:07.623Z,214.70
2023-02-23T13:05:07.663Z,217.21
2023-02-23T13:06:07.672Z,215.71
2023-02-23T13:07:07.711Z,213.94
2023-02-23T13:08:13.123Z,215.65
2023-02-23T13:09:08.790Z,215.80
2023-02-23T13:10:07.816Z,215.81
2023-02-23T13:11:07.854Z,215.68
2023-02-23T13:12:07.894Z,213.10
2023-02-23T13:13:07.926Z,212.76
2023-02-23T13:14:07.964Z,213.41
2023-02-23T13:15:07.998Z,213.35
2023-02-23T15:01:13.727Z,181.99
2023-02-23T15:02:13.215Z,181.28
2023-02-23T15:03:13.271Z,181.56
2023-02-23T15:04:13.323Z,180.02
2023-02-23T15:05:13.370Z,180.25
2023-02-23T15:06:13.529Z,182.32
2023-02-23T15:07:15.574Z,180.09
2023-02-23T15:08:13.545Z,180.02
2023-02-23T15:09:13.585Z,179.36
2023-02-23T15:10:13.631Z,180.20
2023-02-23T15:11:13.656Z,178.44
2023-02-23T15:12:13.698Z,178.45
2023-02-23T15:13:13.755Z,178.50
2023-02-23T15:18:13.959Z,177.12
2023-02-23T15:19:14.002Z,176.01
2023-02-23T15:20:17.401Z,178.20
2023-02-23T15:28:14.385Z,174.39
2023-02-23T15:29:14.439Z,173.94
2023-02-23T15:30:14.469Z,172.14
2023-02-23T15:31:14.553Z,174.13
2023-02-23T15:32:14.768Z,171.33
2023-02-23T15:33:14.593Z,171.86
2023-02-23T15:34:14.625Z,171.44
2023-02-23T15:35:14.663Z,172.85
2023-02-23T15:36:14.755Z,172.05
2023-02-23T15:37:14.796Z,170.36
2023-02-23T15:38:40.424Z,169.16
2023-02-23T15:39:15.893Z,169.43
2023-02-23T15:40:14.866Z,169.58
2023-02-23T15:41:14.897Z,169.67
2023-02-23T15:42:14.989Z,170.79
2023-02-23T15:43:14.982Z,167.52
2023-02-23T15:44:15.035Z,170.26
2023-02-23T15:45:15.071Z,169.37
2023-02-23T15:46:15.205Z,168.69
2023-02-23T15:47:15.147Z,167.03
2023-02-23T15:48:15.199Z,168.10
2023-02-23T15:49:15.272Z,168.33
2023-02-23T15:50:16.461Z,166.95
2023-02-23T15:51:15.325Z,165.72
2023-02-23T15:52:15.364Z,166.18
2023-02-23T15:53:15.404Z,164.76
2023-02-23T15:54:15.446Z,165.05
2023-02-23T15:55:15.491Z,166.55
2023-02-23T15:56:15.544Z,166.78
2023-02-23T15:57:15.588Z,164.61
2023-02-23T15:58:15.675Z,165.18
2023-02-23T15:59:15.747Z,165.13
2023-02-23T16:05:15.957Z,163.44
2023-02-23T16:06:16.017Z,163.50
2023-02-23T16:07:16.083Z,162.68
2023-02-23T16:08:16.146Z,162.83
2023-02-23T16:09:16.209Z,163.19
2023-02-23T16:10:16.281Z,163.25
2023-02-23T16:11:16.360Z,162.90
2023-02-23T16:12:16.419Z,161.64
2023-02-23T16:13:16.485Z,162.55
2023-02-23T16:14:16.563Z,161.30
2023-02-23T16:15:16.633Z,160.28
2023-02-23T16:16:16.742Z,161.91
2023-02-23T16:17:16.881Z,161.19
2023-02-23T16:18:16.840Z,160.81
2023-02-23T16:19:16.906Z,161.43
2023-02-23T16:20:17.002Z,159.77
2023-02-23T16:21:17.075Z,160.20
2023-02-23T16:22:17.150Z,161.39
2023-02-23T16:23:19.741Z,160.97
2023-02-23T16:24:18.255Z,161.07
2023-02-23T16:25:17.323Z,161.02
2023-02-23T16:26:17.419Z,160.77
2023-02-23T16:27:17.415Z,160.76
2023-02-23T16:28:17.473Z,160.10
2023-02-23T16:29:17.487Z,161.50
2023-02-23T16:30:17.547Z,158.45
2023-02-23T16:31:17.664Z,158.51
2023-02-23T16:32:17.873Z,158.46
2023-02-23T16:33:17.659Z,158.43
2023-02-23T16:34:17.702Z,158.16
2023-02-23T16:35:17.742Z,158.27
2023-02-23T16:36:18.464Z,158.41
2023-02-23T16:37:17.841Z,158.32
2023-02-23T16:38:17.883Z,158.19
2023-02-23T16:39:17.918Z,156.65
2023-02-23T16:40:17.957Z,157.18
2023-02-23T16:41:18.014Z,157.40
2023-02-23T16:42:18.058Z,158.69
2023-02-23T16:43:18.113Z,157.13
2023-02-23T16:44:18.213Z,157.20
2023-02-23T16:45:18.273Z,156.03
2023-02-23T16:46:18.778Z,156.59
2023-02-23T16:47:18.419Z,156.17
2023-02-23T16:48:18.501Z,156.72
2023-02-23T16:49:18.567Z,154.21
2023-02-23T16:50:20.967Z,154.80
2023-02-23T16:51:18.939Z,155.17
2023-02-23T16:52:19.027Z,153.67
2023-02-23T16:53:19.069Z,156.93
2023-02-23T16:54:19.138Z,156.28
2023-02-23T16:55:19.226Z,155.33
2023-02-23T16:56:19.355Z,155.02
2023-02-23T16:57:19.402Z,155.63
2023-02-23T16:58:19.472Z,154.02
2023-02-23T18:13:26.026Z,144.06
2023-02-23T18:14:26.134Z,143.59
2023-02-23T18:15:27.107Z,144.81
2023-02-23T18:16:26.360Z,142.27
2023-02-23T18:17:26.408Z,142.36
2023-02-23T18:18:26.492Z,142.51
2023-02-23T18:19:26.605Z,141.96
2023-02-23T18:20:26.699Z,140.95
2023-02-23T18:21:27.034Z,141.38
2023-02-23T18:22:26.897Z,142.76
2023-02-23T18:23:27.002Z,141.68
2023-02-23T18:24:27.095Z,141.36
2023-02-23T18:25:27.197Z,140.64
2023-02-23T18:26:27.338Z,141.38
2023-02-23T18:27:27.430Z,139.37
2023-02-23T18:28:27.516Z,139.23
2023-02-23T18:29:27.616Z,140.29
2023-02-23T18:30:27.731Z,138.59
2023-02-23T18:31:28.012Z,138.05
2023-02-23T18:32:28.101Z,138.81
2023-02-23T18:33:28.001Z,138.20
2023-02-23T18:34:28.105Z,138.80
2023-02-23T18:35:28.226Z,136.95
2023-02-23T18:36:28.311Z,138.91
2023-02-23T18:37:28.421Z,136.29
2023-02-23T18:38:28.494Z,137.12
2023-02-23T18:39:28.611Z,137.72
2023-02-23T18:40:28.718Z,137.80
2023-02-23T18:41:28.841Z,139.28
2023-02-23T18:42:28.936Z,135.30
2023-02-23T18:43:29.073Z,136.88
2023-02-23T18:44:29.176Z,137.73
2023-02-23T18:45:29.250Z,136.49
2023-02-23T18:46:29.498Z,137.27
2023-02-23T18:47:29.457Z,136.69
2023-02-23T18:48:29.651Z,139.68
2023-02-23T18:49:29.651Z,135.31
2023-02-23T18:50:29.804Z,134.21
2023-02-23T18:51:29.892Z,134.58
2023-02-23T18:52:29.997Z,134.80
2023-02-23T18:53:30.090Z,135.44
2023-02-23T18:54:30.203Z,135.33
2023-02-23T18:55:30.244Z,135.43
2023-02-23T18:56:30.308Z,135.50
2023-02-23T18:57:30.339Z,134.99
2023-02-23T18:58:30.373Z,136.35
2023-02-23T18:59:30.426Z,135.54
2023-02-23T19:00:30.524Z,136.50
2023-02-23T19:01:30.513Z,134.82
2023-02-23T19:02:30.552Z,132.57
2023-02-23T19:03:30.633Z,135.46
2023-02-23T19:15:31.727Z,132.72
2023-02-23T19:16:31.839Z,133.74
2023-02-23T19:59:36.063Z,120.30
2023-02-23T20:00:36.169Z,121.02
2023-02-23T20:01:36.273Z,121.48
2023-02-23T20:02:36.437Z,122.68
2023-02-23T20:03:36.484Z,121.21
2023-02-23T20:04:36.561Z,120.40
2023-02-23T20:05:36.713Z,120.57
2023-02-23T20:06:36.807Z,118.21
2023-02-23T20:07:36.931Z,120.93
2023-02-23T20:08:37.062Z,120.65
2023-02-23T20:09:37.162Z,120.34
2023-02-23T20:10:37.274Z,119.72
2023-02-23T20:11:37.368Z,119.06
2023-02-23T20:12:37.463Z,119.02
2023-02-23T20:13:37.563Z,119.46
2023-02-23T20:14:39.552Z,117.65
2023-02-23T20:15:37.752Z,117.76
2023-02-23T20:16:37.883Z,119.84
2023-02-23T20:17:37.940Z,119.48
2023-02-23T20:18:37.986Z,117.17
2023-02-23T20:19:38.055Z,121.31
2023-02-23T20:20:38.162Z,116.85
2023-02-23T20:21:38.739Z,118.07
2023-02-23T20:22:38.369Z,117.62
2023-02-23T20:23:38.474Z,115.62
2023-02-23T20:24:38.561Z,117.31
2023-02-23T20:25:38.678Z,116.49
2023-02-23T20:26:38.788Z,117.51
2023-02-23T20:27:38.847Z,117.50
2023-02-23T20:28:38.930Z,116.44
2023-02-23T20:29:39.034Z,115.74
2023-02-23T20:30:39.177Z,113.98
2023-02-23T20:31:39.312Z,117.26
2023-02-23T20:32:39.445Z,116.82
2023-02-23T20:33:39.439Z,116.24
2023-02-23T20:34:39.528Z,115.43
2023-02-23T20:35:39.618Z,113.98
2023-02-23T20:36:39.679Z,116.63
2023-02-23T20:37:40.581Z,115.18
2023-02-23T20:38:39.869Z,113.45
2023-02-23T20:39:39.989Z,116.91
2023-02-23T20:40:40.087Z,115.45
2023-02-23T20:41:40.206Z,114.18
2023-02-23T20:42:41.694Z,114.85
2023-02-23T20:43:40.394Z,116.07
2023-02-23T20:44:41.256Z,113.59
2023-02-23T20:45:40.626Z,112.76
2023-02-23T20:46:40.684Z,111.88
2023-02-23T20:47:40.810Z,114.27
2023-02-23T20:48:40.908Z,112.59
2023-02-23T20:49:40.998Z,113.25
2023-02-23T20:50:41.101Z,113.03
2023-02-23T20:51:41.183Z,113.91
2023-02-23T20:52:41.282Z,113.91
2023-02-23T20:53:41.393Z,111.84
2023-02-23T20:54:41.505Z,111.33
2023-02-23T20:55:41.598Z,112.96
2023-02-23T20:56:41.669Z,110.86
2023-02-23T20:57:41.758Z,109.10
2023-02-23T20:58:41.844Z,110.45
2023-02-23T20:59:41.913Z,112.04
2023-02-23T21:00:42.002Z,110.40
2023-02-23T21:42:44.992Z,102.38
2023-02-23T21:43:45.071Z,103.65
2023-02-23T21:44:45.167Z,101.97
2023-02-23T21:45:45.260Z,102.00
2023-02-23T21:46:45.457Z,99.11
2023-02-23T21:47:45.397Z,99.01
2023-02-23T21:48:45.441Z,100.32
2023-02-23T21:49:45.529Z,100.51
2023-02-23T21:50:45.608Z,100.28
2023-02-23T21:51:45.695Z,98.70
2023-02-23T21:52:45.760Z,100.20
2023-02-23T21:53:45.823Z,98.73
2023-02-23T21:54:45.893Z,99.84
2023-02-23T21:55:45.969Z,97.48
2023-02-23T21:56:46.032Z,98.48
2023-02-23T21:57:46.127Z,95.64
2023-02-23T21:58:46.220Z,97.75
2023-02-23T21:59:46.311Z,99.41
2023-02-23T22:00:46.432Z,96.94
2023-02-23T22:01:46.697Z,97.28
2023-02-23T22:02:46.934Z,100.96
2023-02-23T22:03:46.667Z,99.24
2023-02-23T22:04:46.737Z,96.08
2023-02-23T22:05:46.840Z,94.39
2023-02-23T22:06:46.938Z,96.23
2023-02-23T22:07:46.991Z,94.68
2023-02-23T22:08:47.084Z,97.09
2023-02-23T22:09:47.172Z,96.03
2023-02-23T22:10:47.276Z,96.38
2023-02-23T22:11:47.436Z,98.20
2023-02-23T22:12:47.451Z,97.05
2023-02-23T22:13:47.533Z,97.55
2023-02-23T22:14:47.618Z,96.03
2023-02-23T22:15:47.747Z,94.11
2023-02-23T22:16:47.923Z,94.25
2023-02-23T22:17:47.862Z,95.28
2023-02-23T22:18:47.961Z,95.60
2023-02-23T22:19:47.994Z,97.64
2023-02-23T22:20:48.071Z,96.00
2023-02-23T22:21:48.127Z,93.80
2023-02-23T22:22:48.225Z,94.19
2023-02-23T22:23:48.281Z,93.82
2023-02-23T22:24:48.339Z,92.22
2023-02-23T22:25:48.412Z,90.41
2023-02-23T22:26:48.481Z,91.96
2023-02-23T22:27:48.554Z,93.25
2023-02-23T22:28:48.641Z,91.41
2023-02-23T22:29:48.733Z,91.30
2023-02-23T22:30:48.784Z,91.96
2023-02-23T22:31:49.120Z,93.73
2023-02-23T22:32:49.154Z,93.70
2023-02-23T22:33:48.936Z,91.40
2023-02-23T22:34:48.989Z,90.97
2023-02-23T22:35:49.068Z,92.20
2023-02-23T22:36:49.136Z,90.93
2023-02-23T22:37:49.197Z,91.88
2023-02-23T22:38:49.270Z,89.44
2023-02-23T22:39:49.366Z,91.15
2023-02-23T22:51:50.263Z,85.53
2023-02-23T22:52:50.346Z,89.66
2023-02-23T22:53:50.425Z,88.10
2023-02-23T22:54:50.509Z,85.64
2023-02-23T22:55:50.591Z,86.70
2023-02-23T22:56:50.640Z,88.12
2023-02-23T22:57:50.706Z,88.21
2023-02-23T22:58:50.781Z,88.49
2023-02-23T22:59:50.867Z,86.37
2023-02-23T23:00:50.987Z,86.82
2023-02-23T23:01:51.093Z,85.46
2023-02-23T23:02:51.189Z,85.33
2023-02-23T23:03:51.260Z,85.33
2023-02-23T23:04:51.381Z,86.97
2023-02-23T23:05:51.432Z,85.73
2023-02-23T23:06:51.526Z,84.53
2023-02-23T23:07:51.615Z,84.41
2023-02-23T23:08:51.692Z,84.52
2023-02-23T23:09:51.778Z,85.97
2023-02-23T23:10:51.854Z,87.36
2023-02-23T23:11:51.919Z,82.46
2023-02-23T23:12:52.033Z,81.69
2023-02-23T23:13:52.124Z,84.47
2023-02-23T23:14:52.185Z,85.69
2023-02-23T23:15:55.260Z,85.35
2023-02-23T23:16:52.421Z,84.77
2023-02-23T23:17:52.375Z,83.37
2023-02-23T23:18:52.425Z,83.76
2023-02-23T23:19:52.488Z,84.82
2023-02-23T23:20:52.542Z,82.95
2023-02-23T23:21:52.603Z,82.80
2023-02-23T23:22:52.645Z,84.22
2023-02-23T23:23:52.703Z,81.32
2023-02-23T23:24:52.763Z,80.93
2023-02-23T23:25:52.820Z,81.67
2023-02-23T23:26:52.868Z,79.38
2023-02-23T23:27:52.936Z,81.80
2023-02-23T23:28:53.006Z,80.35
2023-02-23T23:29:53.064Z,80.65
2023-02-23T23:30:53.129Z,81.07
2023-02-23T23:31:53.331Z,82.84
2023-02-23T23:32:53.344Z,80.04
2023-02-23T23:33:53.262Z,80.98
2023-02-23T23:34:53.325Z,76.17
2023-02-23T23:35:53.378Z,76.64
2023-02-23T23:36:53.604Z,79.51
2023-02-23T23:37:53.476Z,77.95
2023-02-23T23:38:53.539Z,76.62
